createdAt,value
2024-01-05T10:38:08.916Z,1.40
2024-01-05T10:40:35.724Z,1.63
2024-01-05T10:43:10.497Z,1.30
2024-01-05T10:45:39.128Z,1.30
2024-01-05T10:48:10.397Z,1.27
2024-01-05T10:50:38.527Z,1.20
2024-01-05T10:53:09.935Z,1.27
2024-01-05T10:55:38.791Z,1.20
2024-01-05T10:58:08.916Z,1.30
2024-01-05T11:00:37.215Z,1.17
2024-01-05T11:03:12.093Z,1.10
2024-01-05T11:05:42.341Z,1.38
2024-01-05T11:08:24.744Z,1.15
2024-01-05T11:11:26.835Z,1.40
2024-01-05T11:14:07.168Z,1.40
2024-01-05T11:16:56.139Z,1.42
2024-01-05T11:19:47.874Z,1.55
2024-01-05T11:22:20.382Z,1.20
2024-01-05T11:24:49.422Z,0.90
2024-01-05T11:27:36.018Z,1.02
2024-01-05T11:30:04.070Z,1.00
2024-01-05T11:32:34.668Z,1.20
2024-01-05T11:35:02.374Z,1.50
2024-01-05T11:37:32.615Z,1.30
2024-01-05T11:40:01.465Z,0.77
2024-01-05T11:42:30.053Z,1.30
2024-01-05T11:45:02.252Z,1.30
2024-01-05T11:47:48.480Z,1.42
2024-01-05T11:50:33.293Z,1.45
2024-01-05T11:56:16.300Z,1.20
2024-01-05T11:58:45.281Z,1.45
2024-01-05T12:01:13.292Z,1.23
2024-01-05T12:03:41.138Z,1.08
2024-01-05T12:06:12.543Z,1.40
2024-01-05T12:08:41.227Z,1.55
2024-01-05T12:11:10.078Z,1.48
2024-01-05T12:13:38.643Z,1.70
2024-01-05T12:16:10.844Z,1.65
2024-01-05T12:18:46.660Z,1.83
2024-01-05T12:21:16.012Z,1.73
2024-01-05T12:23:52.465Z,1.80
2024-01-05T12:26:20.104Z,2.08
2024-01-05T12:28:47.979Z,1.90
2024-01-05T12:31:15.031Z,1.77
2024-01-05T12:33:43.438Z,1.83
2024-01-05T12:36:14.498Z,1.75
2024-01-05T12:38:42.094Z,1.92
2024-01-05T12:41:10.701Z,1.92
2024-01-05T12:43:38.533Z,2.10
2024-01-05T12:46:07.362Z,1.75
2024-01-05T12:48:34.540Z,2.58
2024-01-05T12:51:12.501Z,2.35
2024-01-05T12:53:39.217Z,2.50
2024-01-05T12:56:18.533Z,2.03
2024-01-05T12:58:49.499Z,2.10
2024-01-05T13:01:24.266Z,2.00
2024-01-05T13:03:56.401Z,2.50
2024-01-05T13:06:25.722Z,2.28
2024-01-05T13:08:52.814Z,1.50
2024-01-05T13:11:21.524Z,2.17
2024-01-05T13:13:50.310Z,2.03
2024-01-05T13:16:17.410Z,1.65
2024-01-05T13:18:44.368Z,2.00
2024-01-05T13:21:11.591Z,1.90
2024-01-05T13:23:41.392Z,1.83
2024-01-05T13:26:08.144Z,1.30
2024-01-05T13:28:38.293Z,1.92
2024-01-05T13:31:05.784Z,1.73
2024-01-05T13:33:33.751Z,1.77
2024-01-05T13:36:00.860Z,1.80
2024-01-05T13:38:27.988Z,1.92
2024-01-05T13:40:54.741Z,1.60
2024-01-05T13:43:23.176Z,1.90
2024-01-05T13:45:51.265Z,1.90
2024-01-05T13:48:18.220Z,1.60
2024-01-05T13:50:44.983Z,2.25
2024-01-05T13:53:14.113Z,2.33
2024-01-05T13:55:41.669Z,1.92
2024-01-05T13:58:08.583Z,1.95
2024-01-05T14:00:35.501Z,2.20
2024-01-05T14:03:02.399Z,2.38
2024-01-05T14:05:29.603Z,2.58
2024-01-05T14:07:56.481Z,1.85
2024-01-05T14:10:23.219Z,1.77
2024-01-05T14:12:49.881Z,2.00
2024-01-05T14:15:16.888Z,2.35
2024-01-05T14:17:43.775Z,2.30
2024-01-05T14:20:11.288Z,2.50
2024-01-05T14:22:38.203Z,2.40
2024-01-05T14:25:08.029Z,2.35
2024-01-05T14:27:34.962Z,2.35
2024-01-05T14:30:01.872Z,3.40
2024-01-05T14:32:28.611Z,3.67
2024-01-05T14:34:55.428Z,4.10
2024-01-05T14:37:22.932Z,3.83
2024-01-05T14:39:49.655Z,4.95
2024-01-05T14:42:17.127Z,5.22
2024-01-05T14:44:43.906Z,5.35
2024-01-05T14:47:10.622Z,1.92
2024-01-05T14:49:37.377Z,4.30
2024-01-05T14:52:04.370Z,5.32
2024-01-05T14:54:31.682Z,5.57
2024-01-05T14:56:58.601Z,5.30
2024-01-05T14:59:25.280Z,4.45
2024-01-05T15:01:52.033Z,5.43
2024-01-05T15:04:18.916Z,5.03
2024-01-05T15:06:45.803Z,5.20
2024-01-05T15:09:13.178Z,5.45
2024-01-05T15:11:40.761Z,5.35
2024-01-05T15:14:07.705Z,3.20
2024-01-05T15:16:43.077Z,4.88
2024-01-05T15:19:10.155Z,4.88
2024-01-05T15:21:37.109Z,5.28
2024-01-05T15:24:04.606Z,4.35
2024-01-05T15:26:31.503Z,3.97
2024-01-05T15:29:03.123Z,3.30
2024-01-05T15:31:30.264Z,1.98
2024-01-05T15:33:57.934Z,1.83
2024-01-05T15:36:25.731Z,2.50
2024-01-05T15:38:52.815Z,2.22
2024-01-05T15:41:20.301Z,2.67
2024-01-05T15:43:48.854Z,3.10
2024-01-05T15:46:17.683Z,3.15
2024-01-05T15:48:44.903Z,1.98
2024-01-05T15:51:20.486Z,2.05
2024-01-05T15:53:47.779Z,2.58
2024-01-05T15:56:17.435Z,1.77
2024-01-05T15:58:44.373Z,2.08
2024-01-05T16:01:12.587Z,1.83
2024-01-05T16:03:41.019Z,1.70
2024-01-05T16:06:12.083Z,2.20
2024-01-05T16:08:40.013Z,0.88
2024-01-05T16:11:06.728Z,2.20
2024-01-05T16:13:33.446Z,2.17
2024-01-05T16:16:16.034Z,1.98
2024-01-05T16:18:45.088Z,2.45
2024-01-05T16:21:12.513Z,1.05
2024-01-05T16:23:40.596Z,2.58
2024-01-05T16:26:10.311Z,1.27
2024-01-05T16:28:37.081Z,2.00
2024-01-05T16:31:03.920Z,2.13
2024-01-05T16:33:31.994Z,2.20
2024-01-05T16:35:59.044Z,3.00
2024-01-05T16:38:25.915Z,2.58
2024-01-05T16:40:52.581Z,3.58
2024-01-05T16:43:19.572Z,2.65
2024-01-05T16:45:47.016Z,2.08
2024-01-05T16:48:14.426Z,2.70
2024-01-05T16:50:44.459Z,2.47
2024-01-05T16:53:11.913Z,2.45
2024-01-05T16:55:38.698Z,2.60
2024-01-05T16:58:05.968Z,2.63
2024-01-05T17:00:33.189Z,2.95
2024-01-05T17:03:04.279Z,3.58
2024-01-05T17:05:31.231Z,3.28
2024-01-05T17:07:57.995Z,3.35
2024-01-05T17:10:24.729Z,3.70
2024-01-05T17:12:51.462Z,2.47
2024-01-05T17:15:18.312Z,3.33
2024-01-05T17:17:46.372Z,4.22
2024-01-05T17:20:21.820Z,3.53
2024-01-05T17:22:52.141Z,4.03
2024-01-05T17:25:18.856Z,3.15
2024-01-05T17:27:45.658Z,3.78
2024-01-05T17:30:14.823Z,3.90
2024-01-05T17:32:41.635Z,3.03
2024-01-05T17:35:09.353Z,2.75
2024-01-05T17:37:36.138Z,2.90
2024-01-05T17:40:04.641Z,2.92
2024-01-05T17:42:31.542Z,3.08
2024-01-05T17:44:58.345Z,3.17
2024-01-05T17:47:25.558Z,2.80
2024-01-05T17:49:52.458Z,3.28
2024-01-05T17:52:21.516Z,2.80
2024-01-05T17:54:48.370Z,2.70
2024-01-05T17:57:15.351Z,3.35
2024-01-05T17:59:42.168Z,3.58
2024-01-05T18:02:08.999Z,3.60
2024-01-05T18:04:35.793Z,3.42
2024-01-05T18:07:02.765Z,3.60
2024-01-05T18:09:29.671Z,3.95
2024-01-05T18:11:56.399Z,4.03
2024-01-05T18:14:23.113Z,3.65
2024-01-05T18:16:50.850Z,3.25
2024-01-05T18:19:18.001Z,3.58
2024-01-05T18:21:46.252Z,3.90
2024-01-05T18:24:13.461Z,3.70
2024-01-05T18:26:40.639Z,3.80
2024-01-05T18:29:16.856Z,4.00
2024-01-05T18:31:52.061Z,9.57
2024-01-05T18:34:22.981Z,4.55
2024-01-05T18:36:50.465Z,3.88
2024-01-05T18:39:17.478Z,4.28
2024-01-05T18:41:44.736Z,4.55
2024-01-05T18:44:14.676Z,5.75
2024-01-05T18:46:41.593Z,6.82
2024-01-05T18:49:09.081Z,5.07
2024-01-05T18:51:36.244Z,6.05
2024-01-05T18:54:05.229Z,5.28
2024-01-05T18:56:33.417Z,5.10
2024-01-05T18:59:00.503Z,4.80
2024-01-05T19:01:27.439Z,4.82
2024-01-05T19:03:54.277Z,5.40
2024-01-05T19:06:21.979Z,5.25
2024-01-05T19:08:48.819Z,5.43
2024-01-05T19:11:15.666Z,5.55
2024-01-05T19:13:43.030Z,5.60
2024-01-05T19:16:09.965Z,5.53
2024-01-05T19:18:37.244Z,5.82
2024-01-05T19:21:05.137Z,5.70
2024-01-05T19:23:32.132Z,6.10
2024-01-05T19:25:59.974Z,5.85
2024-01-05T19:28:28.043Z,5.78
2024-01-05T19:30:55.704Z,5.10
2024-01-05T19:33:22.986Z,5.75
2024-01-05T19:35:50.085Z,5.88
2024-01-05T19:38:16.987Z,6.10
2024-01-05T19:40:44.814Z,6.43
2024-01-05T19:43:15.732Z,5.85
2024-01-05T19:45:42.696Z,6.45
2024-01-05T19:48:10.534Z,6.43
2024-01-05T19:50:38.514Z,6.35
2024-01-05T19:53:05.937Z,6.85
2024-01-05T19:55:33.216Z,6.00
2024-01-05T19:58:00.055Z,6.75
2024-01-05T20:00:27.241Z,6.20
2024-01-05T20:02:54.212Z,6.75
2024-01-05T20:05:22.674Z,6.30
2024-01-05T20:07:51.262Z,6.57
2024-01-05T20:10:18.169Z,6.90
2024-01-05T20:12:47.318Z,5.85
2024-01-05T20:15:14.776Z,7.07
2024-01-05T20:17:42.061Z,6.45
2024-01-05T20:20:12.601Z,7.28
2024-01-05T20:22:40.458Z,7.30
2024-01-05T20:25:08.183Z,6.82
2024-01-05T20:27:42.462Z,7.13
2024-01-05T20:32:42.576Z,7.97
2024-01-05T20:35:12.180Z,8.93
2024-01-05T20:37:39.329Z,10.80
2024-01-05T20:40:09.431Z,9.65
2024-01-05T20:42:37.822Z,10.32
2024-01-05T20:45:07.175Z,11.55
2024-01-05T20:47:34.316Z,13.27
2024-01-05T20:50:01.253Z,14.68
2024-01-05T20:52:28.325Z,15.63
2024-01-05T20:54:55.225Z,16.27
2024-01-05T20:57:22.156Z,14.80
2024-01-05T20:59:50.148Z,13.20
2024-01-05T21:02:17.164Z,12.90
2024-01-05T21:04:47.145Z,11.85
2024-01-05T21:07:15.536Z,12.10
2024-01-05T21:09:42.563Z,12.20
2024-01-05T21:12:09.475Z,12.18
2024-01-05T21:14:40.330Z,11.98
2024-01-05T21:17:07.793Z,10.27
2024-01-05T21:19:40.340Z,11.48
2024-01-05T21:22:07.546Z,11.20
2024-01-05T21:24:34.545Z,7.88
2024-01-05T21:27:01.481Z,9.45
2024-01-05T21:29:29.216Z,9.65
2024-01-05T21:31:56.447Z,10.27
2024-01-05T21:34:23.352Z,9.60
2024-01-05T21:36:50.649Z,8.90
2024-01-05T21:39:17.923Z,10.43
2024-01-05T21:41:47.206Z,10.38
2024-01-05T21:44:14.173Z,8.73
2024-01-05T21:46:40.910Z,9.68
2024-01-05T21:49:09.513Z,10.68
2024-01-05T21:51:37.240Z,9.98
2024-01-05T21:54:04.492Z,10.15
2024-01-05T21:56:31.361Z,9.95
2024-01-05T21:58:58.120Z,10.10
2024-01-05T22:01:24.986Z,8.88
2024-01-05T22:03:51.841Z,7.40
2024-01-05T22:06:18.789Z,9.90
2024-01-05T22:08:46.290Z,7.85
2024-01-05T22:11:13.094Z,10.65
2024-01-05T22:13:40.296Z,10.30
2024-01-05T22:16:07.459Z,9.85
2024-01-05T22:18:38.113Z,7.03
2024-01-05T22:21:15.038Z,9.73
2024-01-05T22:23:42.220Z,8.77
2024-01-05T22:26:09.501Z,8.23
2024-01-05T22:28:37.574Z,9.88
2024-01-05T22:31:10.473Z,10.38
2024-01-05T22:33:39.588Z,10.18
2024-01-05T22:36:11.299Z,10.13
2024-01-05T22:38:38.940Z,8.75
2024-01-05T22:41:06.943Z,8.77
2024-01-05T22:43:34.725Z,10.45
2024-01-05T22:46:08.360Z,9.65
2024-01-05T22:48:36.597Z,9.13
2024-01-05T22:51:04.133Z,8.70
2024-01-05T22:53:30.886Z,9.43
2024-01-05T22:55:57.563Z,7.53
2024-01-05T22:58:24.248Z,9.68
2024-01-05T23:00:51.036Z,9.18
2024-01-05T23:03:17.938Z,9.13
2024-01-05T23:05:44.706Z,4.32
2024-01-05T23:08:11.621Z,8.32
2024-01-05T23:10:38.333Z,8.23
2024-01-05T23:13:05.964Z,7.95
2024-01-05T23:15:36.109Z,8.10
2024-01-05T23:18:03.031Z,8.02
2024-01-05T23:20:31.413Z,7.95
2024-01-05T23:22:58.230Z,7.28
2024-01-05T23:25:24.954Z,7.45
2024-01-05T23:27:51.722Z,6.28
2024-01-05T23:30:18.741Z,8.00
2024-01-05T23:32:45.745Z,7.10
2024-01-05T23:35:13.260Z,7.05
